地図

経路データ

SID SEASON NUMBER BASIN SUBBASIN NAME ISO_TIME NATURE LAT LON WMO_WIND WMO_PRES WMO_AGENCY TRACK_TYPE DIST2LAND LANDFALL IFLAG USA_AGENCY USA_ATCF_ID USA_LAT USA_LON USA_RECORD USA_STATUS USA_WIND USA_PRES USA_SSHS USA_R34_NE USA_R34_SE USA_R34_SW USA_R34_NW USA_R50_NE USA_R50_SE USA_R50_SW USA_R50_NW USA_R64_NE USA_R64_SE USA_R64_SW USA_R64_NW USA_POCI USA_ROCI USA_RMW USA_EYE TOKYO_LAT TOKYO_LON TOKYO_GRADE TOKYO_WIND TOKYO_PRES TOKYO_R50_DIR TOKYO_R50_LONG TOKYO_R50_SHORT TOKYO_R30_DIR TOKYO_R30_LONG TOKYO_R30_SHORT TOKYO_LAND CMA_LAT CMA_LON CMA_CAT CMA_WIND CMA_PRES HKO_LAT HKO_LON HKO_CAT HKO_WIND HKO_PRES NEWDELHI_LAT NEWDELHI_LON NEWDELHI_GRADE NEWDELHI_WIND NEWDELHI_PRES NEWDELHI_CI NEWDELHI_DP NEWDELHI_POCI REUNION_LAT REUNION_LON REUNION_TYPE REUNION_WIND REUNION_PRES REUNION_TNUM REUNION_CI REUNION_RMW REUNION_R34_NE REUNION_R34_SE REUNION_R34_SW REUNION_R34_NW REUNION_R50_NE REUNION_R50_SE REUNION_R50_SW REUNION_R50_NW REUNION_R64_NE REUNION_R64_SE REUNION_R64_SW REUNION_R64_NW BOM_LAT BOM_LON BOM_TYPE BOM_WIND BOM_PRES BOM_TNUM BOM_CI BOM_RMW BOM_R34_NE BOM_R34_SE BOM_R34_SW BOM_R34_NW BOM_R50_NE BOM_R50_SE BOM_R50_SW BOM_R50_NW BOM_R64_NE BOM_R64_SE BOM_R64_SW BOM_R64_NW BOM_ROCI BOM_POCI BOM_EYE BOM_POS_METHOD BOM_PRES_METHOD NADI_LAT NADI_LON NADI_CAT NADI_WIND NADI_PRES WELLINGTON_LAT WELLINGTON_LON WELLINGTON_WIND WELLINGTON_PRES DS824_LAT DS824_LON DS824_STAGE DS824_WIND DS824_PRES TD9636_LAT TD9636_LON TD9636_STAGE TD9636_WIND TD9636_PRES TD9635_LAT TD9635_LON TD9635_WIND TD9635_PRES TD9635_ROCI NEUMANN_LAT NEUMANN_LON NEUMANN_CLASS NEUMANN_WIND NEUMANN_PRES MLC_LAT MLC_LON MLC_CLASS MLC_WIND MLC_PRES USA_GUST BOM_GUST BOM_GUST_PER REUNION_GUST REUNION_GUST_PER USA_SEAHGT USA_SEARAD_NE USA_SEARAD_SE USA_SEARAD_SW USA_SEARAD_NW STORM_SPEED STORM_DIR
1977034S18176 1977 14 SP MM NOT_NAMED 1977-02-03 00:00:00 TS -18.3000 176.200 40 990 wellington main 110 92 ________O___O_ -1 -18.3000 176.200 40 990 -18.3000 176.200 TC 25 10 129
1977034S18176 1977 14 SP MM NOT_NAMED 1977-02-03 03:00:00 TS -18.6112 176.610 main 92 84 ________P___P_ -1 -18.6274 176.636 40 990 -18.5951 176.585 TC 25 10 128
1977034S18176 1977 14 SP MM NOT_NAMED 1977-02-03 06:00:00 TS -18.9217 177.034 main 94 91 ________P___O_ -1 -18.9434 177.068 40 990 -18.9000 177.000 TC 25 10 127
1977034S18176 1977 14 SP MM NOT_NAMED 1977-02-03 09:00:00 TS -19.2264 177.474 main 109 109 ________P___P_ -1 -19.2377 177.492 40 990 -19.2150 177.457 TC 27 10 125
1977034S18176 1977 14 SP MM NOT_NAMED 1977-02-03 12:00:00 TS -19.5000 177.900 40 990 wellington main 134 134 ________O___O_ -1 -19.5000 177.900 40 990 -19.5000 177.900 TC 30 9 123
1977034S18176 1977 14 SP MM NOT_NAMED 1977-02-03 15:00:00 TS -19.7196 178.277 main 156 156 ________P___P_ -1 -19.7244 178.288 40 990 -19.7148 178.265 TC 30 8 121
1977034S18176 1977 14 SP MM NOT_NAMED 1977-02-03 18:00:00 TS -19.9111 178.627 main 183 183 ________P___O_ -1 -19.9222 178.653 40 990 -19.9000 178.600 TC 30 8 120
1977034S18176 1977 14 SP MM NOT_NAMED 1977-02-03 21:00:00 TS -20.1007 178.978 main 218 218 ________P___P_ -1 -20.1089 178.991 40 990 -20.0925 178.965 TC 30 7 122
1977034S18176 1977 14 SP MM NOT_NAMED 1977-02-04 00:00:00 TS -20.3000 179.300 40 990 wellington main 251 251 ________O___O_ -1 -20.3000 179.300 40 990 -20.3000 179.300 TC 30 7 128
1977034S18176 1977 14 SP MM NOT_NAMED 1977-02-04 03:00:00 TS -20.5376 179.564 main 284 284 ________P___P_ -1 -20.5254 179.563 37 991 -20.5499 179.565 TC 25 7 136
1977034S18176 1977 14 SP MM NOT_NAMED 1977-02-04 06:00:00 TS -20.7784 179.800 main 323 323 ________P___O_ -1 -20.7568 179.801 35 993 -20.8000 179.800 TC 20 6 136
1977034S18176 1977 14 SP MM NOT_NAMED 1977-02-04 09:00:00 TS -20.9961 180.037 main 351 351 ________P___P_ -1 -20.9848 -179.962 32 995 -21.0074 -179.965 TC 17 6 132
1977034S18176 1977 14 SP MM NOT_NAMED 1977-02-04 12:00:00 TS -21.2000 180.300 30 997 wellington main 385 385 ________O___O_ -1 -21.2000 -179.700 30 997 -21.2000 -179.700 TC 15 6 126
1977034S18176 1977 14 SP MM NOT_NAMED 1977-02-04 15:00:00 TS -21.3689 180.577 main 419 419 ________P___P_ -1 -21.3302 -179.481 30 997 -21.4075 -179.365 TC 15 6 121
1977034S18176 1977 14 SP MM NOT_NAMED 1977-02-04 18:00:00 TS -21.5280 180.890 main 444 444 ________P___O_ -1 -21.4561 -179.219 30 997 -21.6000 -179.000 TC 15 7 117
1977034S18176 1977 14 SP MM NOT_NAMED 1977-02-04 21:00:00 TS -21.6665 181.203 main 480 480 ________P___P_ -1 -21.6291 -178.848 30 997 -21.7039 -178.746 TC 15 8 116
1977034S18176 1977 14 SP MM NOT_NAMED 1977-02-05 00:00:00 TS -21.9000 181.700 30 997 wellington main 528 528 ________O___O_ -1 -21.9000 -178.300 30 997 -21.9000 -178.300 TC 15 14 117
1977034S18176 1977 14 SP MM NOT_NAMED 1977-02-05 03:00:00 TS -22.3165 182.581 main 621 621 ________P___P_ -1 -22.2923 -177.440 30 997 -22.3408 -177.398 TC 17 20 118
1977034S18176 1977 14 SP MM NOT_NAMED 1977-02-05 06:00:00 TS -22.8420 183.646 main 732 732 ________P___O_ -1 -22.7841 -176.408 30 997 -22.9000 -176.300 TC 20 22 119
1977034S18176 1977 14 SP MM NOT_NAMED 1977-02-05 09:00:00 TS -23.3964 184.697 main 860 860 ________P___P_ -1 -23.3581 -175.321 30 997 -23.4346 -175.284 TC 20 22 122
1977034S18176 1977 14 SP MM NOT_NAMED 1977-02-05 12:00:00 TS -24.0000 185.700 30 997 wellington main 980 980 ________O___O_ -1 -24.0000 -174.300 30 997 -24.0000 -174.300 TC 20 22 125
1977034S18176 1977 14 SP MM NOT_NAMED 1977-02-05 15:00:00 TS -24.6261 186.636 main 1093 1093 ________P___P_ -1 -24.7047 -173.403 32 995 -24.5476 -173.324 TC 22 21 130
1977034S18176 1977 14 SP MM NOT_NAMED 1977-02-05 18:00:00 TS -25.3347 187.447 main 1205 1205 ________P___O_ -1 -25.4693 -172.606 35 993 -25.2000 -172.500 TC 25 20 140
1977034S18176 1977 14 SP MM NOT_NAMED 1977-02-05 21:00:00 TS -26.1743 188.086 main 1324 1324 ________P___P_ -1 -26.2492 -171.954 37 991 -26.0995 -171.873 TC 25 19 150
1977034S18176 1977 14 SP MM NOT_NAMED 1977-02-06 00:00:00 TS -27.0000 188.500 40 990 wellington main 1413 1413 ________O___O_ -1 -27.0000 -171.500 40 990 -27.0000 -171.500 TC 25 16 160
1977034S18176 1977 14 SP MM NOT_NAMED 1977-02-06 03:00:00 TS -27.6478 188.680 main 1467 1414 ________P___P_ -1 -27.6585 -171.273 40 990 -27.6371 -171.366 TC 27 13 173
1977034S18176 1977 14 SP MM NOT_NAMED 1977-02-06 06:00:00 TS -28.2424 188.677 main 1414 1357 ________P___O_ -1 -28.2849 -171.246 40 990 -28.2000 -171.400 TC 30 12 182
1977034S18176 1977 14 SP MM NOT_NAMED 1977-02-06 09:00:00 TS -28.8719 188.617 main 1348 1291 ________P___P_ -1 -28.8939 -171.347 40 990 -28.8500 -171.420 TC 30 13 187
1977034S18176 1977 14 SP MM NOT_NAMED 1977-02-06 12:00:00 TS -29.5000 188.500 40 990 wellington main 1291 1236 ________O___O_ -1 -29.5000 -171.500 40 990 -29.5000 -171.500 TC 30 13 190
1977034S18176 1977 14 SP MM NOT_NAMED 1977-02-06 15:00:00 TS -30.1308 188.371 main 1236 1175 ________P___P_ -1 -30.1616 -171.615 40 990 -30.1000 -171.642 TC 30 13 191
1977034S18176 1977 14 SP MM NOT_NAMED 1977-02-06 18:00:00 TS -30.7588 188.219 main 1167 1115 ________P___O_ -1 -30.8177 -171.762 40 990 -30.7000 -171.800 TC 30 13 191
1977034S18176 1977 14 SP MM NOT_NAMED 1977-02-06 21:00:00 TS -31.4099 188.087 main 1115 1064 ________P___P_ -1 -31.4398 -171.903 40 990 -31.3800 -171.922 TC 32 13 188
1977034S18176 1977 14 SP MM NOT_NAMED 1977-02-07 00:00:00 TS -32.0000 188.000 40 990 wellington main 1064 1029 ________O___O_ -1 -32.0000 -172.000 40 990 -32.0000 -172.000 TC 35 10 187
1977034S18176 1977 14 SP MM NOT_NAMED 1977-02-07 03:00:00 TS -32.4343 187.943 main 1029 1003 ________P___P_ -1 -32.4311 -172.083 40 990 -32.4375 -172.030 TC 35 8 183
1977034S18176 1977 14 SP MM NOT_NAMED 1977-02-07 06:00:00 TS -32.8028 187.947 main 1003 991 ________P___O_ -1 -32.8056 -172.105 40 990 -32.8000 -172.000 TC 35 7 177
1977034S18176 1977 14 SP MM NOT_NAMED 1977-02-07 09:00:00 TS -33.1660 188.001 main 985 975 ________P___P_ -1 -33.1774 -172.025 40 990 -33.1547 -171.974 TC 35 8 165
1977034S18176 1977 14 SP MM NOT_NAMED 1977-02-07 12:00:00 TS -33.6000 188.200 40 990 wellington main 977 970 ________O___O_ -1 -33.6000 -171.800 40 990 -33.6000 -171.800 TC 35 12 155
1977034S18176 1977 14 SP MM NOT_NAMED 1977-02-07 15:00:00 TS -34.2260 188.601 main 978 973 ________P___P_ -1 -34.1669 -171.415 40 990 -34.2850 -171.384 TC 32 15 148
1977034S18176 1977 14 SP MM NOT_NAMED 1977-02-07 18:00:00 TS -34.8924 189.161 main 996 992 ________P___O_ -1 -34.7849 -170.878 40 990 -35.0000 -170.800 TC 30 16 142
1977034S18176 1977 14 SP MM NOT_NAMED 1977-02-07 21:00:00 TS -35.4737 189.790 main 1026 1026 ________P___P_ -1 -35.4102 -170.227 40 990 -35.5371 -170.194 TC 30 16 135
1977034S18176 1977 14 SP MM NOT_NAMED 1977-02-08 00:00:00 TS -36.0000 190.500 40 990 wellington main 1072 1072 ________O___O_ -1 -36.0000 -169.500 40 990 -36.0000 -169.500 TC 30 15 130
1977034S18176 1977 14 SP MM NOT_NAMED 1977-02-08 03:00:00 TS -36.4670 191.253 main 1130 1130 ________P___P_ -1 -36.4766 -168.772 40 990 -36.4574 -168.722 TC 30 15 126
1977034S18176 1977 14 SP MM NOT_NAMED 1977-02-08 06:00:00 TS -36.9072 192.058 main 1193 1191 ________P___O_ -1 -36.9144 -167.983 40 990 -36.9000 -167.900 TC 30 16 124
1977034S18176 1977 14 SP MM NOT_NAMED 1977-02-08 09:00:00 TS -37.3395 192.867 main 1257 1256 ________P___P_ -1 -37.3449 -167.153 40 990 -37.3342 -167.113 TC 27 16 124
1977034S18176 1977 14 SP MM NOT_NAMED 1977-02-08 12:00:00 TS -37.8000 193.700 40 990 wellington main 1322 1322 ________O___O_ -1 -37.8000 -166.300 40 990 -37.8000 -166.300 TC 25 17 125
1977034S18176 1977 14 SP MM NOT_NAMED 1977-02-08 15:00:00 TS -38.2911 194.577 main 1397 1397 ________P___P_ -1 -38.2474 -165.438 40 990 -38.3348 -165.407 TC 25 17 126
1977034S18176 1977 14 SP MM NOT_NAMED 1977-02-08 18:00:00 TS -38.8171 195.470 main 1474 1474 ________P___O_ -1 -38.7341 -164.559 40 990 -38.9000 -164.500 TC 25 17 128
1977034S18176 1977 14 SP MM NOT_NAMED 1977-02-08 21:00:00 TS -39.3500 196.335 main 1543 1543 ________P___P_ -1 -39.3036 -163.676 40 990 -39.3964 -163.653 TC 22 18 131
1977034S18176 1977 14 SP MM NOT_NAMED 1977-02-09 00:00:00 TS -40.0000 197.200 40 990 wellington main 1623 1623 ________O___O_ -1 -40.0000 -162.800 40 990 -40.0000 -162.800 TC 20 20 138
1977034S18176 1977 14 SP MM NOT_NAMED 1977-02-09 03:00:00 TS -40.8355 198.111 main 1705 1705 ________P___P_ -1 -40.8533 -161.936 37 991 -40.8177 -161.842 TC 20 23 143
1977034S18176 1977 14 SP MM NOT_NAMED 1977-02-09 06:00:00 TS -41.8172 199.013 main 1787 1787 ________P___O_ -1 -41.8343 -161.073 35 993 -41.8000 -160.900 TC 20 24 147
1977034S18176 1977 14 SP MM NOT_NAMED 1977-02-09 09:00:00 TS -42.8882 199.866 main 1874 1874 ________P___P_ -1 -42.8985 -160.198 32 995 -42.8779 -160.069 TC 17 25 150
1977034S18176 1977 14 SP MM NOT_NAMED 1977-02-09 12:00:00 TS -44.0000 200.700 30 997 wellington main 1951 ________O___O_ -1 -44.0000 -159.300 30 997 -44.0000 -159.300 TC 15 25 152

デジタル台風データ・検索

IBTrACS Databaseについて

本データベースは、米国NOAAが公開する1842年以降の世界の熱帯低気圧のベストトラックデータアーカイブInternational Best Track Archive for Climate Stewardship (IBTrACS)を、ウェブで閲覧しやすい形式に変換したものです。

最終更新日:2021-10-25